Warning: Javascript must be enabled to use all the features on this page!


Page Loading - Please Wait...

Click to hideNews Bulletins

Peak Streamflow for Texas

Click to hide state-specific text

Explore Real-time Water Data Using New Products from USGS TXWSC

View over 750 USGS real-time stream, lake, reservoir, precipitation, and groundwater stations in context with current weather and hazard conditions on both desktop and mobile devices.

Click to go to the Texas Water Dashboard Click to go to the WATER On-the-go app

Follow @USGS_TexasFlood and @USGS_TexasRain on Twitter to get current water level and precipitation data during flooding or severe rainfall events.


USGS 08095400 Hog Ck nr Crawford, TX

Mclennan County, Texas
Hydrologic Unit Code 12060203
Latitude  31°33'20", Longitude  97°21'22" NAD27
Drainage area 78.2  square miles
Contributing drainage area 78.2  square miles
Gage datum 560.54 feet above NGVD29
Output formats
Table
Graph
Tab-separated file
peakfq (watstore) format
Reselect output format
Water
Year
Date Gage
Height
(feet)
Stream-
flow
(cfs)
1936 1936-09-26 17.505  
1957 1957 15.705,Bm  
1960 1959-10-04 14.31 15,400
1961 1961-02-16 8.32 5,300
1962 1961-10-10 11.50 10,500
1963 1963-05-06 6.33 2,650
1964 1964-06-16 10.79 9,310
1965 1964-11-04 13.07 13,200
1966 1966-04-25 10.44 8,630
1967 1967-06-12 9.14 6,510
1968 1968-07-08 12.36 12,000
1969 1969-05-07 9.86 7,790
1970 1970-03-07 6.10 2,360
1971 1971-08-31 7.44 4,010
1972 1971-10-20 9.02 6,350
1973 1973-06-03 9.54 7,150
1974 1974-09-17 9.39 6,970
1975 1974-10-31 12.86 12,800
1976 1976-06-25 10.46 8,690
1977 1977-05-10 9.13 6,550
1978 1978-05-02 3.10 163
1979 1979-06-02 6.38 2,680
1980 1980-05-15 4.81 1,0806
1981 1981-06-16 10.05 8,0106
1982 1982-03-21 5.12 1,3506
1983 1983-02-20 6.41 2,7206
1984 1984-03-12 3.41 2666
1985 1985-04-28 6.70 3,0706
1986 1986-06-06 5.77 1,9906
1987 1987-05-03 4.30 7086
1988 1988-06-03 5.23 1,4506
1989 1989-05-17 9.55 7,2206
1990 1990-05-03 6.48 2,8006
1991 1991-09-23 4.98 1,2206
1992 1991-12-21 9.85 7,6906
1993 1992-11-19 5.71 1,9206
1995 1995-05-05 8.76 5,9706
1996 1996-08-30 6.74 3,1206
1997 1997-02-12 7.56 4,2306
1998 1997-12-20 7.99 4,8306
2000 2000-06-18 4.47 8196
2001 2001-03-08 5.06 1,1306
2002 2001-11-15 5.32 1,5406
2003 2003-09-18 7.26 2,9706
2004 2004-05-01 6.30 2,1806
2005 2004-11-17 8.06 3,7606
2006 2006-05-06 4.48 7826
2007 2007-03-29 12.10 10,4006
2008 2008-05-14 5.38 1,3706
2009 2008-10-15 5.79 1,7006
2010 2009-10-22 8.43 4,5006
2011 2011-01-16 2.17 24.06
2012 2012-03-20 7.26 3,1006
2013 2013-03-10 1.83 25.06
2014 2014-06-13 5.41 1,3906
2015 2015-05-25 8.03 3,9906
2016 2016-04-18 7.21 3,0806
2017 2017-01-16 4.44 7666
2018 2018-05-04 3.08 2256
2019 2018-10-19 7.35 3,2006
2020 2020-03-22 8.18 4,1706
2021 2021-07-06 3.36 3096
?
  Peak Gage-Height Qualification Codes.
?
  Peak Streamflow Qualification Codes.